Scottsboro, Alabama
Current Conditions -  °F | °C
As of 12:35 PM on Monday 26 Jan 2015 (Local Time) from K4A6 Reporting Station
Overcast Overcast  
Wind Chill: 29°   Ceiling: 2300
Heat Index: 37°   Visibility: 10mi
Dew Point: 28°   Wind: 13mph
Humidity: 70%   Direction: 330°NNW
Pressure: 29.98"   Gusts: 18mph
Location:  34.68°N, 86.08°W
Report Text: K4A6 261835Z AUTO 33011G16KT 10SM BKN023 OVC029 03/M02 A2998 RMK AO2
Loading
Personal Weather Stations






























Interactive Weather Map New forecast layout! Learn more

10-Day Weather Forecast

Advertisements
Track Severe Weather on mobile